Time;durP1;ratioP1;P1;durP2;ratioP2;P2;SDS_P1;SDS_P2;PMS_P1;PMS_P2;Temp;Humidity;BMP_temperature;BMP_pressure;BME280_temperature;BME280_humidity;BME280_pressure;Samples;Min_cycle;Max_cycle;Signal;HPM_P1;HPM_P2
2022/12/15 00:39:27;;;;;;;2.50;1.77;;;-0.20;99.90;;;;;;5055707;28;20047;-75
2022/12/15 00:41:52;;;;;;;2.88;2.00;;;-0.40;99.90;;;;;;5053438;28;20472;-76
2022/12/15 00:44:22;;;;;;;2.47;1.73;;;-0.40;99.90;;;;;;5052626;28;20039;-76
2022/12/15 00:46:53;;;;;;;3.10;1.58;;;-0.50;99.90;;;;;;5052585;28;20165;-76
2022/12/15 01:22:26;;;;;;;1.60;1.40;;;-0.10;99.90;;;;;;5057395;28;20080;-76
2022/12/15 01:24:51;;;;;;;2.50;1.95;;;0.40;99.90;;;;;;5057026;28;20414;-75
2022/12/15 01:27:17;;;;;;;2.08;1.88;;;0.20;99.90;;;;;;5054005;28;20106;-74
2022/12/15 01:29:43;;;;;;;3.38;1.52;;;-0.40;99.90;;;;;;5055335;28;20056;-74
2022/12/15 01:32:08;;;;;;;3.83;1.52;;;-0.40;99.90;;;;;;5052442;28;20028;-74
2022/12/15 01:34:34;;;;;;;2.97;1.58;;;-0.50;99.90;;;;;;5053686;28;20036;-74
2022/12/15 01:37:00;;;;;;;2.35;1.60;;;;;;;;;;5056302;28;20017;-74
2022/12/15 01:40:43;;;;;;;3.30;2.25;;;-0.40;99.90;;;;;;5061533;28;20398;-73
2022/12/15 01:42:12;;;;;;;3.05;2.28;;;-0.40;99.90;;;;;;5048445;28;20029;-74
2022/12/15 01:44:38;;;;;;;3.15;1.83;;;1.80;99.90;;;;;;5065211;28;20075;-74
2022/12/15 01:47:07;;;;;;;3.72;2.33;;;-0.50;99.90;;;;;;5052531;28;20054;-74
2022/12/15 01:49:33;;;;;;;3.63;2.50;;;-0.40;99.90;;;;;;5054076;28;20021;-74
2022/12/15 01:52:00;;;;;;;1.92;1.60;;;-0.50;99.90;;;;;;5053954;28;20534;-74
2022/12/15 01:54:45;;;;;;;2.17;1.75;;;-0.60;99.90;;;;;;5052879;28;20375;-73
2022/12/15 01:57:17;;;;;;;3.22;1.70;;;-0.50;99.90;;;;;;5050302;28;20042;-75
2022/12/15 01:59:50;;;;;;;3.17;2.13;;;0.60;99.90;;;;;;5058285;28;20029;-74
2022/12/15 02:02:17;;;;;;;2.70;2.00;;;-0.30;99.90;;;;;;5059295;28;20029;-74
2022/12/15 02:04:44;;;;;;;2.33;2.10;;;-0.40;99.90;;;;;;5057045;28;20362;-74
2022/12/15 02:07:16;;;;;;;2.90;2.33;;;-0.40;99.90;;;;;;5059834;28;20032;-74
2022/12/15 02:09:44;;;;;;;2.38;2.03;;;-0.40;99.90;;;;;;5073991;28;20018;-73
2022/12/15 02:12:28;;;;;;;3.45;1.85;;;-0.40;99.90;;;;;;5059207;28;20021;-74
2022/12/15 02:15:08;;;;;;;3.22;2.35;;;-0.40;99.90;;;;;;5059283;28;20052;-74
2022/12/15 02:17:40;;;;;;;3.22;2.15;;;-0.40;99.90;;;;;;5051079;28;20037;-73
2022/12/15 02:20:05;;;;;;;4.13;2.83;;;-0.40;99.90;;;;;;5062624;28;20017;-74
2022/12/15 02:22:50;;;;;;;2.50;1.63;;;-0.40;99.90;;;;;;5062027;28;20489;-74
2022/12/15 02:25:41;;;;;;;3.33;2.90;;;0.20;99.90;;;;;;5061108;28;20031;-74
2022/12/15 02:28:24;;;;;;;2.85;2.50;;;-0.30;99.90;;;;;;5077119;28;20025;-74
2022/12/15 02:33:51;;;;;;;3.58;2.13;;;-0.30;99.90;;;;;;5060185;28;20095;-75
2022/12/15 02:36:35;;;;;;;6.30;2.90;;;-0.40;99.90;;;;;;5062392;28;20482;-74
2022/12/15 02:39:02;;;;;;;4.53;2.55;;;-0.40;99.90;;;;;;5063583;28;20079;-74
2022/12/15 02:41:41;;;;;;;3.95;3.42;;;1.00;99.90;;;;;;5076934;28;20048;-73
2022/12/15 02:44:10;;;;;;;1.25;1.15;;;-0.50;99.90;;;;;;5074289;28;20021;-73
2022/12/15 02:46:54;;;;;;;3.20;1.83;;;-0.40;99.90;;;;;;5060571;28;20367;-74
2022/12/15 02:49:50;;;;;;;2.72;1.88;;;-0.40;99.90;;;;;;5077109;28;20025;-73
2022/12/15 02:52:19;;;;;;;2.95;1.98;;;-0.40;99.90;;;;;;5077314;28;20484;-75
2022/12/15 02:55:18;;;;;;;2.45;1.98;;;-0.50;99.90;;;;;;5062287;28;20401;-73
2022/12/15 02:58:13;;;;;;;3.05;2.25;;;-0.40;99.90;;;;;;5060079;28;20028;-74
2022/12/15 03:00:45;;;;;;;6.50;2.13;;;-0.50;99.90;;;;;;5059782;28;20083;-74
2022/12/15 03:03:13;;;;;;;2.90;2.70;;;-0.50;99.90;;;;;;5076629;28;20033;-73
2022/12/15 03:05:39;;;;;;;2.63;2.05;;;-0.60;99.90;;;;;;5077171;28;20035;-73
2022/12/15 03:08:04;;;;;;;2.17;1.90;;;-0.60;99.90;;;;;;5060330;28;20100;-75
2022/12/15 03:10:30;;;;;;;2.83;1.85;;;0.20;99.90;;;;;;5056645;28;20078;-73
2022/12/15 03:12:57;;;;;;;2.55;2.05;;;0.70;99.90;;;;;;5061647;28;20032;-73
2022/12/15 03:15:23;;;;;;;2.92;2.20;;;1.60;99.90;;;;;;5073279;28;20329;-75
2022/12/15 03:17:48;;;;;;;2.85;2.15;;;-0.50;99.90;;;;;;5061548;28;20244;-74
2022/12/15 03:20:14;;;;;;;4.45;2.53;;;-0.60;99.90;;;;;;5060531;28;20048;-73
2022/12/15 03:22:40;;;;;;;2.83;2.22;;;-0.50;99.90;;;;;;5060851;28;20053;-74
2022/12/15 03:25:06;;;;;;;3.83;2.53;;;1.50;99.90;;;;;;5055125;28;20017;-74
2022/12/15 03:27:32;;;;;;;2.47;2.05;;;-0.50;99.90;;;;;;5058550;28;20043;-74
2022/12/15 03:29:57;;;;;;;3.22;2.35;;;-0.50;99.90;;;;;;5057954;28;20052;-73
2022/12/15 03:32:23;;;;;;;2.53;1.80;;;0.10;99.90;;;;;;5057531;28;20036;-74
2022/12/15 03:34:48;;;;;;;3.50;2.28;;;-0.50;99.90;;;;;;5052902;28;20029;-75
2022/12/15 03:37:14;;;;;;;5.20;2.28;;;-0.50;99.90;;;;;;5070933;28;20104;-74
2022/12/15 03:39:39;;;;;;;2.65;2.42;;;-0.60;99.90;;;;;;5057190;28;20147;-74
2022/12/15 03:42:05;;;;;;;2.25;1.83;;;0.40;99.90;;;;;;5059327;28;20409;-73
2022/12/15 03:44:31;;;;;;;3.33;1.65;;;-0.50;99.90;;;;;;5060073;28;20032;-74
2022/12/15 03:46:56;;;;;;;1.40;1.30;;;-0.60;99.90;;;;;;5057933;28;20103;-73
2022/12/15 03:49:22;;;;;;;4.07;2.00;;;;;;;;;;5059399;28;20073;-74
2022/12/15 03:51:48;;;;;;;2.72;1.90;;;-0.60;99.90;;;;;;5060803;28;20047;-74
2022/12/15 03:54:14;;;;;;;2.83;1.85;;;;;;;;;;5076191;28;20560;-73
2022/12/15 03:56:40;;;;;;;2.05;1.73;;;-0.50;99.90;;;;;;5061433;28;20504;-73
2022/12/15 03:59:05;;;;;;;2.90;2.10;;;-0.60;99.90;;;;;;5056443;28;20074;-74
2022/12/15 04:01:34;;;;;;;3.28;1.52;;;-0.60;99.90;;;;;;5052189;28;20064;-74
2022/12/15 04:04:00;;;;;;;2.08;1.73;;;-0.60;99.90;;;;;;5052806;28;20079;-73
2022/12/15 04:06:26;;;;;;;2.33;2.05;;;-0.60;99.90;;;;;;5052714;28;20501;-74
2022/12/15 04:08:51;;;;;;;2.92;1.90;;;1.00;99.90;;;;;;5052757;28;20017;-74
2022/12/15 04:11:17;;;;;;;1.77;1.33;;;-0.70;99.90;;;;;;5067826;28;20032;-74
2022/12/15 04:13:44;;;;;;;2.92;1.77;;;-0.60;99.90;;;;;;5067376;28;20029;-74
2022/12/15 04:16:10;;;;;;;1.88;1.55;;;1.70;99.90;;;;;;5052692;28;20075;-74
2022/12/15 04:18:35;;;;;;;2.42;1.70;;;-0.60;99.90;;;;;;5054459;28;20025;-74
2022/12/15 04:21:01;;;;;;;2.58;1.85;;;-0.60;99.90;;;;;;5066872;28;20044;-73
2022/12/15 04:23:27;;;;;;;1.98;1.85;;;-0.70;99.90;;;;;;5016551;28;1166522;-73
2022/12/15 05:31:57;;;;;;;8.15;4.82;;;0.30;99.90;;;;;;5057221;28;20090;-74
2022/12/15 05:34:34;;;;;;;15.00;6.30;;;0.00;99.90;;;;;;5071743;28;20509;-74
2022/12/15 05:37:01;;;;;;;7.68;5.30;;;-0.60;99.90;;;;;;5054127;28;20029;-74
2022/12/15 05:39:27;;;;;;;10.13;5.18;;;-0.80;99.90;;;;;;5053355;28;20416;-73
2022/12/15 05:41:55;;;;;;;9.60;5.63;;;-0.70;99.90;;;;;;5054404;28;20094;-74
2022/12/15 05:44:22;;;;;;;12.23;6.60;;;0.50;99.90;;;;;;5055943;28;20117;-73
2022/12/15 05:46:48;;;;;;;11.35;5.20;;;;;;;;;;5057110;28;20028;-73
2022/12/15 05:49:15;;;;;;;12.68;5.65;;;-0.80;99.90;;;;;;5058490;28;20397;-74
2022/12/15 05:51:43;;;;;;;16.17;6.47;;;-0.80;99.90;;;;;;5076647;28;20045;-73
2022/12/15 05:54:10;;;;;;;12.30;8.25;;;-0.80;99.90;;;;;;5072447;28;20489;-74
2022/12/15 05:56:36;;;;;;;14.07;7.05;;;-0.70;99.90;;;;;;5073284;28;20040;-73
2022/12/15 05:59:03;;;;;;;15.82;8.65;;;-0.60;99.90;;;;;;5054792;28;20025;-74
2022/12/15 06:01:30;;;;;;;14.82;7.10;;;-0.70;99.90;;;;;;5069157;28;20082;-74
2022/12/15 06:03:57;;;;;;;15.43;6.88;;;-0.70;99.90;;;;;;5055239;28;20021;-73
2022/12/15 06:06:23;;;;;;;26.05;11.48;;;-0.70;99.90;;;;;;5069397;28;20054;-72
2022/12/15 06:08:49;;;;;;;14.60;8.18;;;-0.90;99.90;;;;;;5072161;28;20025;-73
2022/12/15 06:11:16;;;;;;;17.95;9.27;;;-0.80;99.90;;;;;;5055354;28;20032;-72
2022/12/15 06:13:42;;;;;;;15.93;8.80;;;-1.10;99.90;;;;;;5049779;28;20027;-73
2022/12/15 06:16:19;;;;;;;15.43;7.25;;;-1.00;99.90;;;;;;5053065;28;20080;-73
2022/12/15 06:18:49;;;;;;;13.20;6.53;;;-0.90;99.90;;;;;;5054898;28;20253;-73
2022/12/15 06:21:17;;;;;;;16.27;7.97;;;-0.90;99.90;;;;;;5054344;28;20032;-73
2022/12/15 06:23:44;;;;;;;16.43;7.70;;;;;;;;;;5054890;28;20521;-72
2022/12/15 06:26:11;;;;;;;13.00;6.07;;;-0.80;99.90;;;;;;5069913;28;20358;-74
2022/12/15 06:28:37;;;;;;;16.13;8.35;;;-0.90;99.90;;;;;;5052892;28;20478;-74
2022/12/15 06:31:05;;;;;;;15.05;7.53;;;-0.80;99.90;;;;;;5055674;28;20025;-73
2022/12/15 06:33:31;;;;;;;10.80;5.97;;;-0.70;99.90;;;;;;5055492;28;20017;-73
2022/12/15 06:36:01;;;;;;;11.10;6.28;;;-0.90;99.90;;;;;;5058098;28;20036;-74
2022/12/15 06:38:28;;;;;;;15.30;6.75;;;0.30;99.90;;;;;;5056762;28;20044;-74
2022/12/15 06:40:55;;;;;;;14.57;8.27;;;0.80;99.90;;;;;;5056557;28;20143;-74
2022/12/15 06:43:21;;;;;;;17.55;9.32;;;0.20;99.90;;;;;;5055866;28;20029;-75
2022/12/15 06:45:50;;;;;;;16.73;7.63;;;-1.00;99.90;;;;;;5053764;28;20386;-73
2022/12/15 06:48:19;;;;;;;19.52;11.55;;;-1.00;99.90;;;;;;5050984;28;20413;-74
2022/12/15 06:50:46;;;;;;;14.40;8.50;;;-1.00;99.90;;;;;;5054006;28;20031;-74
2022/12/15 06:53:12;;;;;;;20.92;7.72;;;-1.10;99.90;;;;;;5057137;28;20028;-74
2022/12/15 06:55:38;;;;;;;28.42;11.80;;;-1.00;99.90;;;;;;5059365;28;20085;-75
2022/12/15 06:58:04;;;;;;;24.20;10.82;;;1.50;99.90;;;;;;5074364;28;20052;-75
2022/12/15 07:00:30;;;;;;;21.33;11.60;;;;;;;;;;5058857;28;20025;-74
2022/12/15 07:02:56;;;;;;;21.60;10.70;;;-1.10;99.90;;;;;;5072877;28;20067;-74
2022/12/15 07:05:22;;;;;;;22.02;9.05;;;-1.10;99.90;;;;;;5058579;28;20021;-74
2022/12/15 07:07:47;;;;;;;19.55;10.27;;;-1.00;99.90;;;;;;5058390;28;20088;-74
2022/12/15 07:10:13;;;;;;;19.15;8.38;;;-0.80;99.90;;;;;;5060296;28;20025;-74
2022/12/15 07:12:39;;;;;;;20.88;9.32;;;-1.50;99.90;;;;;;5056316;28;20493;-74
2022/12/15 07:15:06;;;;;;;29.00;15.52;;;-1.00;99.90;;;;;;5055018;28;20134;-74
2022/12/15 07:17:33;;;;;;;17.30;7.93;;;-1.00;99.90;;;;;;5069764;28;20085;-75
2022/12/15 07:19:59;;;;;;;21.20;11.52;;;-1.00;99.90;;;;;;5058695;28;20534;-73
2022/12/15 07:22:26;;;;;;;22.83;10.95;;;-1.00;99.90;;;;;;5061264;28;20049;-72
2022/12/15 07:24:52;;;;;;;24.58;12.23;;;-1.10;99.90;;;;;;5060201;28;20025;-74
2022/12/15 07:27:17;;;;;;;20.15;10.35;;;-1.00;99.90;;;;;;5060642;28;20033;-74
2022/12/15 07:29:43;;;;;;;44.58;19.45;;;-1.20;99.90;;;;;;5061505;28;20021;-74
2022/12/15 07:32:09;;;;;;;22.90;11.35;;;-1.00;99.90;;;;;;5074721;28;20021;-74
2022/12/15 07:34:34;;;;;;;24.20;9.38;;;1.50;99.90;;;;;;5075677;28;20088;-74
2022/12/15 07:37:00;;;;;;;40.33;17.38;;;-1.10;99.90;;;;;;5056996;28;20035;-72
2022/12/15 07:39:26;;;;;;;24.35;12.20;;;1.30;99.90;;;;;;5058690;28;20072;-73
2022/12/15 07:41:52;;;;;;;72.68;30.40;;;-0.90;99.90;;;;;;5058921;28;20059;-73
2022/12/15 07:44:17;;;;;;;28.15;12.80;;;-0.80;99.90;;;;;;5057309;28;20060;-73
2022/12/15 07:46:48;;;;;;;29.80;12.40;;;-0.80;99.90;;;;;;5055949;28;20123;-73
2022/12/15 07:49:15;;;;;;;32.60;14.05;;;-0.80;99.90;;;;;;5073202;28;20110;-72
2022/12/15 07:51:42;;;;;;;37.53;13.98;;;-0.80;99.90;;;;;;5062056;28;20037;-74
2022/12/15 07:54:10;;;;;;;31.27;11.88;;;-0.80;99.90;;;;;;5060497;28;20024;-74
2022/12/15 07:56:36;;;;;;;34.13;16.33;;;;;;;;;;5057928;28;20025;-76
2022/12/15 07:59:02;;;;;;;29.92;12.85;;;;;;;;;;5055276;28;20021;-76
2022/12/15 08:01:28;;;;;;;32.78;10.93;;;-0.90;99.90;;;;;;5053189;28;20171;-76
2022/12/15 08:03:53;;;;;;;32.08;12.68;;;-0.80;99.90;;;;;;5053293;28;20056;-76
2022/12/15 08:06:19;;;;;;;25.77;11.68;;;-0.70;99.90;;;;;;5060802;28;20043;-76
2022/12/15 08:08:45;;;;;;;29.33;12.70;;;;;;;;;;5059864;28;20075;-75
2022/12/15 08:11:13;;;;;;;23.58;9.95;;;-0.80;99.90;;;;;;5074039;28;20047;-76
2022/12/15 08:13:40;;;;;;;28.33;13.10;;;-0.90;99.90;;;;;;5056747;28;20474;-75
2022/12/15 08:16:06;;;;;;;25.58;11.27;;;-0.90;99.90;;;;;;5073971;28;20031;-76
2022/12/15 08:18:32;;;;;;;29.38;11.98;;;-0.90;99.90;;;;;;5060988;28;20029;-76
2022/12/15 08:21:05;;;;;;;26.02;12.07;;;-0.80;99.90;;;;;;5076914;28;20040;-76
2022/12/15 08:23:31;;;;;;;27.88;12.48;;;-0.80;99.90;;;;;;5053496;28;20048;-76
2022/12/15 08:26:09;;;;;;;19.65;8.90;;;-1.00;99.90;;;;;;5055333;28;20044;-74
2022/12/15 08:28:37;;;;;;;35.97;13.35;;;-1.20;99.90;;;;;;5050646;28;20028;-73
2022/12/15 08:31:04;;;;;;;22.83;10.05;;;-1.00;99.90;;;;;;5052089;28;20025;-73
2022/12/15 08:33:30;;;;;;;31.63;12.65;;;-0.90;99.90;;;;;;5052269;28;20112;-73
2022/12/15 08:35:58;;;;;;;36.13;11.48;;;-0.90;99.90;;;;;;5054672;28;20053;-73
2022/12/15 08:38:24;;;;;;;40.95;15.30;;;;;;;;;;5055615;28;20075;-73
2022/12/15 08:40:49;;;;;;;43.88;17.40;;;-0.80;99.90;;;;;;5070398;28;20037;-73
2022/12/15 08:43:15;;;;;;;51.75;15.95;;;;;;;;;;5052127;28;20021;-74
2022/12/15 08:45:41;;;;;;;81.88;22.90;;;-0.90;99.90;;;;;;5067025;28;20029;-73
2022/12/15 08:48:07;;;;;;;55.83;20.17;;;-0.90;99.90;;;;;;5051429;28;20040;-73
2022/12/15 08:50:32;;;;;;;70.65;20.52;;;-1.10;99.90;;;;;;5052041;28;20027;-73
2022/12/15 08:52:58;;;;;;;42.40;17.75;;;-1.00;99.90;;;;;;5067601;28;20063;-73
2022/12/15 08:55:24;;;;;;;40.03;17.50;;;-1.10;99.90;;;;;;5052909;28;20249;-74
2022/12/15 08:57:50;;;;;;;41.35;16.35;;;-0.90;99.90;;;;;;5054226;28;20021;-74
2022/12/15 09:00:17;;;;;;;43.58;15.35;;;1.10;99.90;;;;;;5052992;28;20044;-72
2022/12/15 09:02:42;;;;;;;48.30;18.75;;;-0.90;99.90;;;;;;5073401;28;20465;-73
2022/12/15 09:05:08;;;;;;;59.30;20.60;;;0.60;99.90;;;;;;5080651;28;20101;-75
2022/12/15 09:07:34;;;;;;;64.20;22.75;;;-1.00;99.90;;;;;;5075124;28;20024;-75
2022/12/15 09:10:00;;;;;;;54.88;18.77;;;-1.10;99.90;;;;;;5079072;28;20043;-74
2022/12/15 09:12:25;;;;;;;67.47;24.83;;;-1.00;99.90;;;;;;5085536;28;20028;-74
2022/12/15 09:14:51;;;;;;;74.45;21.90;;;;;;;;;;5077330;28;20048;-74
2022/12/15 09:17:17;;;;;;;60.83;23.98;;;;;;;;;;5076969;28;20032;-75
2022/12/15 09:19:43;;;;;;;48.55;21.25;;;-1.10;99.90;;;;;;5072990;28;20025;-75
2022/12/15 09:22:09;;;;;;;57.38;23.63;;;-1.00;99.90;;;;;;5079795;28;20041;-74
2022/12/15 09:24:35;;;;;;;51.22;20.25;;;;;;;;;;5077624;28;20025;-74
2022/12/15 09:27:01;;;;;;;66.40;22.50;;;-1.00;99.90;;;;;;5078033;28;20097;-75
2022/12/15 09:29:27;;;;;;;52.63;20.60;;;-1.00;99.90;;;;;;5074838;28;20421;-75
2022/12/15 09:31:53;;;;;;;56.08;22.67;;;-0.90;99.90;;;;;;5070757;28;20020;-74
2022/12/15 09:34:18;;;;;;;44.97;15.27;;;-1.00;99.90;;;;;;5076047;28;20028;-74
2022/12/15 09:36:44;;;;;;;44.80;18.35;;;;;;;;;;5082271;28;20028;-75
2022/12/15 09:39:11;;;;;;;51.15;17.70;;;-1.00;99.90;;;;;;5081031;28;20032;-75
2022/12/15 09:41:39;;;;;;;52.22;21.90;;;-0.70;99.90;;;;;;5079826;28;20036;-75
2022/12/15 09:44:16;;;;;;;56.75;20.48;;;-0.50;99.90;;;;;;5079702;28;20035;-74
2022/12/15 09:47:16;;;;;;;46.22;19.30;;;-0.70;99.90;;;;;;5079454;28;20047;-76
2022/12/15 09:49:54;;;;;;;53.60;22.13;;;-0.60;99.90;;;;;;5078295;28;20021;-74
2022/12/15 09:53:04;;;;;;;50.45;20.08;;;-0.70;99.90;;;;;;5078841;28;20032;-75
2022/12/15 09:55:32;;;;;;;44.72;19.65;;;-0.80;99.90;;;;;;5070925;28;20033;-74
2022/12/15 09:58:00;;;;;;;42.58;19.02;;;-1.10;99.90;;;;;;5066691;28;20043;-75
2022/12/15 10:00:35;;;;;;;38.37;17.63;;;-0.70;99.90;;;;;;5072997;28;20025;-74
2022/12/15 10:03:36;;;;;;;39.20;16.15;;;-0.50;99.90;;;;;;5085390;28;20037;-75
2022/12/15 10:06:02;;;;;;;45.00;19.23;;;-0.50;99.90;;;;;;5052766;28;20040;-74
2022/12/15 10:08:35;;;;;;;53.25;19.08;;;-0.50;99.90;;;;;;5078688;28;20017;-73
2022/12/15 10:11:25;;;;;;;42.08;17.40;;;-0.50;99.90;;;;;;5073792;28;20044;-75
2022/12/15 10:13:53;;;;;;;39.88;18.58;;;-0.50;99.90;;;;;;5078773;28;20020;-74
2022/12/15 10:16:25;;;;;;;50.70;22.00;;;-0.50;99.90;;;;;;5078325;28;20024;-74
2022/12/15 10:18:56;;;;;;;43.40;20.23;;;-0.40;99.90;;;;;;5076765;28;20024;-75
2022/12/15 10:21:26;;;;;;;39.30;16.67;;;-0.60;99.90;;;;;;5069883;28;20070;-73
2022/12/15 10:23:56;;;;;;;36.10;13.95;;;-0.70;99.90;;;;;;5070009;28;20024;-74
2022/12/15 10:26:30;;;;;;;44.08;17.10;;;-0.70;99.90;;;;;;5069053;28;20052;-73
2022/12/15 10:29:08;;;;;;;37.67;15.77;;;-0.40;99.90;;;;;;5073892;28;20029;-73
2022/12/15 10:31:38;;;;;;;47.13;16.48;;;1.20;99.90;;;;;;5072364;28;20040;-75
2022/12/15 10:34:14;;;;;;;51.70;18.65;;;-0.60;99.90;;;;;;5071440;28;20539;-75
2022/12/15 10:36:51;;;;;;;47.80;18.35;;;1.10;99.90;;;;;;5071173;28;20048;-75
2022/12/15 10:39:18;;;;;;;53.53;20.08;;;-0.60;99.90;;;;;;5070176;28;20024;-73
2022/12/15 10:41:44;;;;;;;54.42;20.45;;;-0.90;99.90;;;;;;5073443;28;20119;-73
2022/12/15 10:44:25;;;;;;;60.90;19.65;;;1.50;99.90;;;;;;5072581;28;20116;-73
2022/12/15 10:46:56;;;;;;;62.15;23.80;;;-0.80;99.90;;;;;;5075362;28;20193;-73
2022/12/15 10:49:24;;;;;;;52.80;22.05;;;-1.00;99.90;;;;;;5073720;28;20271;-73
2022/12/15 10:51:56;;;;;;;59.05;22.25;;;-0.90;99.90;;;;;;5072939;28;20418;-72
2022/12/15 10:54:25;;;;;;;57.95;23.98;;;-0.80;99.90;;;;;;5079995;28;20028;-75
2022/12/15 10:56:52;;;;;;;;;;;0.90;99.90;;;;;;5081148;28;20025;-75
2022/12/15 10:59:31;;;;;;;54.58;23.25;;;-0.90;99.90;;;;;;5074733;28;20065;-75
2022/12/15 11:02:24;;;;;;;54.35;22.60;;;-1.00;99.90;;;;;;5074346;28;20488;-75
2022/12/15 11:04:57;;;;;;;60.50;26.02;;;-1.10;99.90;;;;;;5077361;28;20043;-74
2022/12/15 11:07:25;;;;;;;67.47;22.77;;;-0.80;99.90;;;;;;5077199;28;20031;-74
2022/12/15 11:09:59;;;;;;;72.40;25.55;;;-0.70;99.90;;;;;;5072561;28;20374;-74
2022/12/15 11:15:19;;;;;;;79.13;27.30;;;-0.80;99.90;;;;;;5074289;28;20078;-73
2022/12/15 11:17:47;;;;;;;70.18;23.98;;;-0.80;99.90;;;;;;5073741;28;20043;-73
2022/12/15 11:20:26;;;;;;;72.30;26.38;;;-0.80;99.90;;;;;;5072464;28;20032;-74
2022/12/15 11:22:59;;;;;;;72.22;27.42;;;-1.00;99.90;;;;;;5072889;28;20044;-73
2022/12/15 11:25:44;;;;;;;64.25;26.15;;;-1.00;99.90;;;;;;5071991;28;20043;-73
2022/12/15 11:28:45;;;;;;;71.13;26.55;;;-1.00;99.90;;;;;;5071251;28;20415;-74
2022/12/15 11:31:33;;;;;;;69.50;22.77;;;-1.00;99.90;;;;;;5070270;28;20094;-75
2022/12/15 11:33:59;;;;;;;66.55;22.60;;;-1.10;99.90;;;;;;5076905;28;20020;-75
2022/12/15 11:36:46;;;;;;;70.90;33.33;;;-1.20;99.90;;;;;;5076423;28;20036;-75
2022/12/15 11:39:49;;;;;;;74.95;29.90;;;-1.20;99.90;;;;;;5074049;28;20134;-74
2022/12/15 11:42:23;;;;;;;61.95;26.23;;;-0.90;99.90;;;;;;5074961;28;20048;-75
2022/12/15 11:45:30;;;;;;;54.75;23.45;;;-1.00;99.90;;;;;;5073972;28;20181;-76
2022/12/15 11:48:08;;;;;;;77.93;24.92;;;-1.00;99.90;;;;;;5074780;28;20043;-75
2022/12/15 11:50:37;;;;;;;81.80;27.63;;;-0.70;99.90;;;;;;5079767;28;20119;-75
2022/12/15 11:53:20;;;;;;;87.20;32.63;;;-0.90;99.90;;;;;;5074346;28;20033;-75
2022/12/15 11:55:54;;;;;;;38.28;17.17;;;-1.10;99.90;;;;;;5072702;28;20070;-75
2022/12/15 11:58:48;;;;;;;74.22;26.20;;;-1.30;99.90;;;;;;5075967;28;20035;-75
2022/12/15 12:01:39;;;;;;;86.60;30.55;;;-1.30;99.90;;;;;;5074017;28;20032;-75
2022/12/15 12:04:24;;;;;;;87.60;32.42;;;-1.20;99.90;;;;;;5075895;28;20024;-76
2022/12/15 12:07:28;;;;;;;85.38;32.78;;;-1.40;99.90;;;;;;5073471;28;20023;-75
2022/12/15 12:10:20;;;;;;;127.20;37.30;;;-1.30;99.90;;;;;;5072919;28;20083;-75
2022/12/15 12:12:59;;;;;;;72.47;25.08;;;-1.30;99.90;;;;;;5073309;28;20021;-75
2022/12/15 12:15:48;;;;;;;111.80;30.92;;;-1.40;99.90;;;;;;5075729;28;20036;-75
2022/12/15 12:18:26;;;;;;;90.45;35.58;;;-1.60;99.90;;;;;;5077263;28;20029;-75
2022/12/15 12:21:05;;;;;;;94.88;27.75;;;-1.20;99.90;;;;;;5074776;28;20035;-74
2022/12/15 12:23:55;;;;;;;102.22;33.75;;;-1.70;99.90;;;;;;5070924;28;20041;-73
2022/12/15 12:26:28;;;;;;;78.68;25.20;;;-1.10;99.90;;;;;;5073306;28;20020;-75
2022/12/15 12:29:12;;;;;;;79.18;28.13;;;-1.60;99.90;;;;;;5074457;28;20024;-74
2022/12/15 12:31:52;;;;;;;127.82;37.97;;;-1.20;99.90;;;;;;5074622;28;20031;-75
2022/12/15 12:34:45;;;;;;;142.10;33.83;;;-1.40;99.90;;;;;;5073290;28;20266;-76
2022/12/15 12:37:22;;;;;;;127.20;35.55;;;-1.60;99.90;;;;;;5073063;28;20046;-76
2022/12/15 12:39:50;;;;;;;111.88;37.53;;;-1.60;99.90;;;;;;5077950;28;20195;-75
2022/12/15 12:42:36;;;;;;;122.57;36.55;;;-0.20;99.90;;;;;;5075958;28;20115;-73
2022/12/15 12:45:02;;;;;;;135.88;44.22;;;-1.40;99.90;;;;;;5076609;28;20024;-74
2022/12/15 12:47:35;;;;;;;123.38;35.55;;;-1.40;99.90;;;;;;5075363;28;20020;-75
2022/12/15 12:50:17;;;;;;;91.43;32.47;;;-1.10;99.90;;;;;;5072624;28;20024;-74
2022/12/15 12:53:02;;;;;;;86.30;33.97;;;-1.40;99.90;;;;;;5071766;28;20020;-75
2022/12/15 12:55:41;;;;;;;109.38;34.00;;;-1.20;99.90;;;;;;5073925;28;20080;-75
2022/12/15 12:58:31;;;;;;;89.95;35.80;;;-1.10;99.90;;;;;;5071832;28;20060;-73
2022/12/15 13:01:18;;;;;;;100.35;31.83;;;-1.20;99.90;;;;;;5073554;28;20040;-73
2022/12/15 13:03:45;;;;;;;89.32;30.17;;;-1.10;99.90;;;;;;5070688;28;20186;-74
2022/12/15 13:06:32;;;;;;;90.90;27.55;;;-1.20;99.90;;;;;;5069891;28;20024;-74
2022/12/15 13:09:18;;;;;;;89.38;33.45;;;-1.20;99.90;;;;;;5072766;28;20079;-75
2022/12/15 13:12:00;;;;;;;119.22;36.63;;;-1.20;99.90;;;;;;5073445;28;20020;-74
2022/12/15 13:14:38;;;;;;;129.60;37.28;;;-1.20;99.90;;;;;;5070440;28;20021;-74
2022/12/15 13:17:20;;;;;;;178.65;43.72;;;-1.40;99.90;;;;;;5070701;28;20025;-73
2022/12/15 13:19:58;;;;;;;127.10;38.70;;;-1.00;99.90;;;;;;5070793;28;20025;-73
2022/12/15 13:22:29;;;;;;;142.02;41.90;;;-1.40;99.90;;;;;;5070522;28;20054;-74
2022/12/15 13:24:56;;;;;;;140.38;37.92;;;-1.40;99.90;;;;;;5070661;28;20027;-73
2022/12/15 13:27:22;;;;;;;129.25;33.78;;;;;;;;;;5073000;28;20096;-76
2022/12/15 13:30:12;;;;;;;156.75;41.38;;;-1.40;99.90;;;;;;5072983;28;20025;-73
2022/12/15 13:32:50;;;;;;;99.93;38.60;;;-1.50;99.90;;;;;;5070522;28;20020;-73
2022/12/15 13:35:30;;;;;;;119.07;37.42;;;-1.50;99.90;;;;;;5086122;28;20032;-75
2022/12/15 13:38:06;;;;;;;123.25;36.53;;;-1.60;99.90;;;;;;5070776;28;20078;-73
2022/12/15 13:40:35;;;;;;;118.25;39.53;;;-1.40;99.90;;;;;;5069380;28;20025;-73
2022/12/15 13:43:03;;;;;;;121.40;32.47;;;-1.30;99.90;;;;;;5071032;28;20025;-75
2022/12/15 13:45:52;;;;;;;138.25;37.85;;;-1.20;99.90;;;;;;5069382;28;20036;-73
2022/12/15 13:48:37;;;;;;;89.07;27.25;;;-0.40;99.90;;;;;;5070680;28;20516;-73
2022/12/15 13:51:28;;;;;;;78.70;25.92;;;-1.70;99.90;;;;;;5068839;28;20131;-73
2022/12/15 13:53:57;;;;;;;98.22;32.22;;;-1.40;99.90;;;;;;5072020;28;20534;-74
2022/12/15 13:56:41;;;;;;;99.13;34.28;;;-1.20;99.90;;;;;;5071135;28;20024;-74
2022/12/15 13:59:33;;;;;;;81.97;26.58;;;-1.40;99.90;;;;;;5073484;28;20024;-74
2022/12/15 14:01:59;;;;;;;83.32;28.80;;;-1.30;99.90;;;;;;5069450;28;20131;-75
2022/12/15 14:04:25;;;;;;;136.90;35.10;;;-1.40;99.90;;;;;;5074882;28;20105;-75
2022/12/15 14:06:56;;;;;;;101.88;32.17;;;1.30;99.90;;;;;;5075603;28;20070;-75
2022/12/15 14:09:35;;;;;;;97.85;32.03;;;-1.30;99.90;;;;;;5072089;28;20024;-75
2022/12/15 14:12:04;;;;;;;92.70;32.67;;;-1.60;99.90;;;;;;5076791;28;20040;-74
2022/12/15 14:14:36;;;;;;;114.55;37.20;;;-1.60;99.90;;;;;;5081235;28;20481;-75
2022/12/15 14:17:07;;;;;;;102.30;35.45;;;-1.40;99.90;;;;;;5081819;28;20060;-75
2022/12/15 14:19:42;;;;;;;111.35;36.88;;;-0.90;99.90;;;;;;5082674;28;20092;-75
2022/12/15 14:22:24;;;;;;;90.80;35.63;;;-1.50;99.90;;;;;;5083120;28;20551;-75
2022/12/15 14:24:51;;;;;;;77.50;28.83;;;-1.50;99.90;;;;;;5083810;28;20024;-75
2022/12/15 14:27:26;;;;;;;99.13;31.17;;;-1.40;99.90;;;;;;5080457;28;20032;-75
2022/12/15 14:30:21;;;;;;;89.90;32.25;;;-1.40;99.90;;;;;;5075436;28;20027;-75
2022/12/15 14:33:11;;;;;;;83.15;31.20;;;-1.40;99.90;;;;;;5081018;28;20150;-75
2022/12/15 14:35:57;;;;;;;92.95;30.75;;;-1.30;99.90;;;;;;5075513;28;20037;-74
2022/12/15 14:38:45;;;;;;;100.53;32.53;;;0.80;99.90;;;;;;5074797;28;20096;-74
2022/12/15 14:41:23;;;;;;;98.53;34.88;;;-1.50;99.90;;;;;;5074417;28;20059;-74
2022/12/15 14:43:51;;;;;;;107.53;33.28;;;-1.50;99.90;;;;;;5073608;28;20056;-73
2022/12/15 14:46:21;;;;;;;94.28;30.52;;;-1.60;99.90;;;;;;5071650;28;20476;-73
2022/12/15 14:49:04;;;;;;;82.70;28.60;;;-1.50;99.90;;;;;;5074154;28;20526;-75
2022/12/15 14:51:39;;;;;;;77.70;26.48;;;-1.70;99.90;;;;;;5072367;28;20090;-74
2022/12/15 14:54:05;;;;;;;97.00;33.80;;;;;;;;;;5072394;28;20481;-74
2022/12/15 14:56:31;;;;;;;118.13;37.17;;;-1.50;99.90;;;;;;5074207;28;20469;-73
2022/12/15 14:59:03;;;;;;;157.75;44.08;;;-3.00;99.90;;;;;;5071427;28;20036;-74
2022/12/15 15:01:33;;;;;;;98.35;34.28;;;-1.60;99.90;;;;;;5073326;28;20054;-74
2022/12/15 15:04:21;;;;;;;119.03;40.10;;;-1.70;99.90;;;;;;5073065;28;20249;-74
2022/12/15 15:06:53;;;;;;;170.10;43.47;;;-1.40;99.90;;;;;;5071843;28;20273;-74
2022/12/15 15:09:30;;;;;;;75.45;23.13;;;-1.60;99.90;;;;;;5074727;28;20025;-74
2022/12/15 15:12:01;;;;;;;102.47;29.33;;;-1.60;99.90;;;;;;5074690;28;20528;-75
2022/12/15 15:14:36;;;;;;;222.40;46.00;;;-1.80;99.90;;;;;;5072518;28;20020;-74
2022/12/15 15:17:08;;;;;;;181.02;46.22;;;-1.70;99.90;;;;;;5076156;28;20024;-75
2022/12/15 15:19:36;;;;;;;194.50;47.70;;;-1.70;99.90;;;;;;5073165;28;20481;-74
2022/12/15 15:22:02;;;;;;;149.65;39.05;;;;;;;;;;5071712;28;20048;-74
2022/12/15 15:24:34;;;;;;;109.28;36.45;;;-1.80;99.90;;;;;;5073891;28;20435;-73
2022/12/15 15:27:34;;;;;;;158.40;44.00;;;-1.60;99.90;;;;;;5073436;28;20082;-74